Zim Mumbai — P3BA7 — position and weather

sailwx.info

Track history (hours):
 
Tides and Currents Weather Stations Pressure Air Temp Water Temp Dewpoint Dewpoint Depression Visibility Wind Speed Wind Dir Waves Ship Positions

Zim Mumbai

Last reported at 2016-Sep-20 14:25 UTC. Time now 2016-Sep-26 08:50 UTC.
Position N 18°12' W 061°16'.

Length 195.7 m; beam 32.3 m; draft 11.5 m.

Type: Ship (hazmat cat B). MMSI: 212160000.

Date/timePositionNaut miles runAvg speedWind from/ knotsBaromVisibWave heightAir tempDewpointWater temp
2016-Sep-20 14:25N 18°12' W 061°16'  
2016-Sep-14 13:33N 36°59' W 076°08'1110.1
2016-Sep-14 12:29N 36°54' W 076°20'2 0.9
2016-Sep-14 10:33N 36°53' W 076°21'0 0.0
2016-Sep-14 09:32N 36°53' W 076°21'0 0.0
2016-Sep-14 08:32N 36°53' W 076°21'0 0.0
2016-Sep-14 07:28N 36°53' W 076°21'0 0.0
2016-Sep-14 06:33N 36°53' W 076°21'0 0.0
2016-Sep-14 03:33N 36°53' W 076°21'0 0.0
2016-Sep-13 22:33N 36°53' W 076°21'4 1.9
2016-Sep-13 20:33N 36°56' W 076°20'2311.3
2016-Sep-13 18:31N 36°53' W 075°52'26 3.7
2016-Sep-13 11:33N 36°47' W 075°20'11 4.7
2016-Sep-13 09:14N 36°48' W 075°34'2112.4
2016-Sep-13 07:33N 36°56' W 075°58'1312.8
2016-Sep-13 06:33N 37°06' W 076°07'3015.2
2016-Sep-13 04:33N 37°37' W 076°06'2914.6
2016-Sep-13 02:33N 38°05' W 076°13'4515.0
2016-Sep-12 23:33N 38°49' W 076°25'2512.5
2016-Sep-12 21:33N 39°13' W 076°32'2 0.9
2016-Sep-12 19:29N 39°15' W 076°33'0 0.0
2016-Sep-12 17:28N 39°15' W 076°33'0 0.0
2016-Sep-12 14:32N 39°15' W 076°33'0 0.0
2016-Sep-12 13:25N 39°15' W 076°33'0 0.0
2016-Sep-12 12:33N 39°15' W 076°33'0 0.0
2016-Sep-12 11:30N 39°15' W 076°33'4 4.4
2016-Sep-12 10:33N 39°12' W 076°30'4514.1
2016-Sep-12 07:20N 38°27' W 076°22'1714.1
2016-Sep-12 06:10N 38°11' W 076°15'6714.5
2016-Sep-12 01:32N 37°05' W 076°06'134 7.8
2016-Sep-11 08:24N 38°40' W 074°06'1112.1
2016-Sep-11 07:32N 38°50' W 074°02'1212.2
2016-Sep-11 06:33N 39°02' W 073°58'3612.1
2016-Sep-11 03:33N 39°37' W 073°53'1212.2
2016-Sep-11 02:33N 39°50' W 073°52'1212.2
2016-Sep-11 01:33N 40°02' W 073°51'1312.1
2016-Sep-11 00:27N 40°15' W 073°50'1112.4
2016-Sep-10 23:33N 40°26' W 073°48'1313.3
2016-Sep-10 22:33N 40°34' W 074°02'7 7.2
2016-Sep-10 21:33N 40°39' W 074°09'2 1.8
2016-Sep-10 20:29N 40°41' W 074°09'0 0.0
2016-Sep-10 19:32N 40°41' W 074°09'0 0.0
2016-Sep-10 18:29N 40°41' W 074°09'0 0.0
2016-Sep-10 17:32N 40°41' W 074°09'0 0.0
2016-Sep-10 16:30N 40°41' W 074°09'0 0.0
2016-Sep-10 15:33N 40°41' W 074°09'0 0.0
2016-Sep-10 14:31N 40°41' W 074°09'  
Track history (hours):
 
Tides and Currents Weather Stations Pressure Air Temp Water Temp Dewpoint Dewpoint Depression Visibility Wind Speed Wind Dir Waves Ship Positions

Zim Mumbai

Last reported at 2016-Sep-20 14:25 UTC. Time now 2016-Sep-26 08:50 UTC.
Position N 18°12' W 061°16'.

Length 195.7 m; beam 32.3 m; draft 11.5 m.

Type: Ship (hazmat cat B). MMSI: 212160000.

Date/timePositionNaut miles runAvg speedWind from/ knotsBaromVisibWave heightAir tempDewpointWater temp
2016-Sep-20 14:25N 18°12' W 061°16'  
2016-Sep-14 13:33N 36°59' W 076°08'1110.1
2016-Sep-14 12:29N 36°54' W 076°20'2 0.9
2016-Sep-14 10:33N 36°53' W 076°21'0 0.0
2016-Sep-14 09:32N 36°53' W 076°21'0 0.0
2016-Sep-14 08:32N 36°53' W 076°21'0 0.0
2016-Sep-14 07:28N 36°53' W 076°21'0 0.0
2016-Sep-14 06:33N 36°53' W 076°21'0 0.0
2016-Sep-14 03:33N 36°53' W 076°21'0 0.0
2016-Sep-13 22:33N 36°53' W 076°21'4 1.9
2016-Sep-13 20:33N 36°56' W 076°20'2311.3
2016-Sep-13 18:31N 36°53' W 075°52'26 3.7
2016-Sep-13 11:33N 36°47' W 075°20'11 4.7
2016-Sep-13 09:14N 36°48' W 075°34'2112.4
2016-Sep-13 07:33N 36°56' W 075°58'1312.8
2016-Sep-13 06:33N 37°06' W 076°07'3015.2
2016-Sep-13 04:33N 37°37' W 076°06'2914.6
2016-Sep-13 02:33N 38°05' W 076°13'4515.0
2016-Sep-12 23:33N 38°49' W 076°25'2512.5
2016-Sep-12 21:33N 39°13' W 076°32'2 0.9
2016-Sep-12 19:29N 39°15' W 076°33'0 0.0
2016-Sep-12 17:28N 39°15' W 076°33'0 0.0
2016-Sep-12 14:32N 39°15' W 076°33'0 0.0
2016-Sep-12 13:25N 39°15' W 076°33'0 0.0
2016-Sep-12 12:33N 39°15' W 076°33'0 0.0
2016-Sep-12 11:30N 39°15' W 076°33'4 4.4
2016-Sep-12 10:33N 39°12' W 076°30'4514.1
2016-Sep-12 07:20N 38°27' W 076°22'1714.1
2016-Sep-12 06:10N 38°11' W 076°15'6714.5
2016-Sep-12 01:32N 37°05' W 076°06'134 7.8
2016-Sep-11 08:24N 38°40' W 074°06'1112.1
2016-Sep-11 07:32N 38°50' W 074°02'1212.2
2016-Sep-11 06:33N 39°02' W 073°58'3612.1
2016-Sep-11 03:33N 39°37' W 073°53'1212.2
2016-Sep-11 02:33N 39°50' W 073°52'1212.2
2016-Sep-11 01:33N 40°02' W 073°51'1312.1
2016-Sep-11 00:27N 40°15' W 073°50'1112.4
2016-Sep-10 23:33N 40°26' W 073°48'1313.3
2016-Sep-10 22:33N 40°34' W 074°02'7 7.2
2016-Sep-10 21:33N 40°39' W 074°09'2 1.8
2016-Sep-10 20:29N 40°41' W 074°09'0 0.0
2016-Sep-10 19:32N 40°41' W 074°09'0 0.0
2016-Sep-10 18:29N 40°41' W 074°09'0 0.0
2016-Sep-10 17:32N 40°41' W 074°09'0 0.0
2016-Sep-10 16:30N 40°41' W 074°09'0 0.0
2016-Sep-10 15:33N 40°41' W 074°09'0 0.0
2016-Sep-10 14:31N 40°41' W 074°09'  

Dump ship's entire track history